Time;durP1;ratioP1;P1;durP2;ratioP2;P2;SDS_P1;SDS_P2;PMS_P1;PMS_P2;Temp;Humidity;BMP_temperature;BMP_pressure;BME280_temperature;BME280_humidity;BME280_pressure;Samples;Min_cycle;Max_cycle;Signal;HPM_P1;HPM_P2
2024/02/13 00:01:16;;;;;;;4.53;2.87;;;;;;;7.92;83.40;95322.38;4912806;29;20316;-85
2024/02/13 00:16:10;;;;;;;3.50;2.77;;;;;;;7.79;83.40;95347.75;4914895;29;20206;-86
2024/02/13 00:19:04;;;;;;;3.80;2.40;;;;;;;7.83;83.08;95349.00;4914744;29;20262;-86
2024/02/13 00:22:01;;;;;;;2.77;2.30;;;;;;;7.74;83.09;95345.66;4911627;29;20198;-86
2024/02/13 00:24:43;;;;;;;;;;;;;;;;;;;;;
2024/02/13 00:30:51;;;;;;;3.00;2.70;;;;;;;7.62;83.70;95367.47;4893043;29;20209;-86
2024/02/13 00:37:35;;;;;;;;;;;;;;;;;;;;;
2024/02/13 00:47:09;;;;;;;;;;;;;;;;;;;;;
2024/02/13 00:49:50;;;;;;;;;;;;;;;;;;;;;
2024/02/13 00:55:55;;;;;;;2.73;2.20;;;;;;;7.77;81.67;95378.66;4822572;29;20251;-86
2024/02/13 01:01:59;;;;;;;3.07;2.13;;;;;;;7.65;80.42;95353.56;4882052;29;20214;-85
2024/02/13 01:05:21;;;;;;;3.90;2.17;;;;;;;7.68;80.30;95355.78;4898163;29;20198;-86
2024/02/13 01:10:47;;;;;;;4.43;2.80;;;;;;;7.57;79.72;95346.66;4907001;29;20239;-86
2024/02/13 01:13:37;;;;;;;3.17;2.60;;;;;;;7.62;79.65;95347.78;4893012;29;20281;-86
2024/02/13 01:16:19;;;;;;;3.13;2.30;;;;;;;7.61;79.07;95340.25;4899230;29;20280;-86
2024/02/13 01:18:51;;;;;;;2.63;1.80;;;;;;;7.65;79.27;95351.00;4912734;29;20252;-86
2024/02/13 01:21:30;;;;;;;4.77;2.10;;;;;;;7.66;79.14;95344.91;4911236;29;20224;-86
2024/02/13 01:24:08;;;;;;;2.30;1.60;;;;;;;7.68;78.86;95343.78;4912533;29;20213;-85
2024/02/13 01:27:07;;;;;;;4.07;2.10;;;;;;;7.72;78.79;95345.03;4911897;29;20213;-86
2024/02/13 01:32:40;;;;;;;2.40;1.80;;;;;;;7.73;78.36;95338.13;4907264;29;20206;-87
2024/02/13 01:38:36;;;;;;;3.57;1.67;;;;;;;7.64;78.18;95337.38;4912395;29;20894;-86
2024/02/13 01:44:38;;;;;;;2.33;1.60;;;;;;;7.66;77.76;95335.44;4901643;29;20238;-86
2024/02/13 01:47:46;;;;;;;;;;;;;;;;;;;;;
2024/02/13 01:50:27;;;;;;;2.43;1.53;;;;;;;7.56;78.20;95353.56;4907735;29;20721;-86
2024/02/13 01:53:42;;;;;;;3.33;1.47;;;;;;;7.51;78.57;95355.00;4913172;29;20214;-85
2024/02/13 01:56:47;;;;;;;3.73;1.90;;;;;;;7.57;78.18;95359.47;4904891;29;20620;-86
2024/02/13 01:59:42;;;;;;;1.70;1.60;;;;;;;7.58;77.95;95367.00;4912370;29;20217;-87
2024/02/13 02:05:27;;;;;;;3.43;1.60;;;;;;;7.56;77.53;95363.81;4909294;29;20210;-86
2024/02/13 02:08:43;;;;;;;3.13;1.50;;;;;;;7.57;77.62;95370.53;4912979;29;20308;-86
2024/02/13 02:14:59;;;;;;;4.10;1.70;;;;;;;7.56;76.96;95345.06;4897101;29;20582;-86
2024/02/13 02:17:52;;;;;;;2.27;1.70;;;;;;;7.59;77.01;95360.91;4912442;29;20237;-86
2024/02/13 02:20:56;;;;;;;4.43;1.43;;;;;;;7.63;76.82;95353.72;4910585;29;20206;-86
2024/02/13 02:23:34;;;;;;;1.50;1.40;;;;;;;7.56;76.41;95342.50;4913256;29;20205;-86
2024/02/13 02:26:38;;;;;;;3.27;1.63;;;;;;;7.63;76.25;95348.59;4903891;29;20564;-86
2024/02/13 02:29:25;;;;;;;3.47;1.70;;;;;;;7.65;75.72;95322.81;4871781;29;20203;-86
2024/02/13 02:32:08;;;;;;;;;;;;;;;;;;;;;
2024/02/13 02:34:49;;;;;;;1.70;1.33;;;;;;;7.76;75.53;95322.44;4902418;29;20233;-85
2024/02/13 02:37:21;;;;;;;4.80;1.90;;;;;;;7.78;75.43;95336.69;4905643;29;20253;-86
2024/02/13 02:42:51;;;;;;;2.67;1.40;;;;;;;7.72;74.59;95310.91;4899230;29;20201;-87
2024/02/13 02:45:37;;;;;;;4.17;1.43;;;;;;;7.65;74.83;95313.34;4907498;29;20655;-87
2024/02/13 02:48:26;;;;;;;2.00;1.30;;;;;;;7.67;74.42;95308.88;4903031;29;20234;-86
2024/02/13 02:51:04;;;;;;;3.93;1.50;;;;;;;7.62;74.38;95313.69;4906374;29;20210;-86
2024/02/13 02:53:35;;;;;;;1.20;1.10;;;;;;;7.66;74.41;95322.63;4905457;29;20208;-86
2024/02/13 02:56:17;;;;;;;3.20;1.47;;;;;;;7.65;74.64;95323.59;4913349;29;20222;-86
2024/02/13 02:59:04;;;;;;;2.70;1.30;;;;;;;7.66;74.30;95314.97;4908849;29;20759;-86
2024/02/13 03:01:40;;;;;;;2.17;1.40;;;;;;;7.62;73.97;95316.25;4906091;29;20233;-86
2024/02/13 03:04:18;;;;;;;2.60;1.50;;;;;;;7.69;74.17;95330.00;4921550;29;20202;-87
2024/02/13 03:07:19;;;;;;;3.90;1.50;;;;;;;7.69;73.96;95318.97;4913964;29;20233;-86
2024/02/13 03:12:44;;;;;;;2.43;1.40;;;;;;;7.69;73.92;95324.09;4912641;29;20609;-86
2024/02/13 03:15:15;;;;;;;3.93;1.40;;;;;;;7.69;73.58;95324.09;4911629;29;20226;-87
2024/02/13 03:21:08;;;;;;;2.30;1.40;;;;;;;7.60;73.92;95349.72;4898430;29;20209;-86
2024/02/13 03:23:52;;;;;;;3.03;1.40;;;;;;;7.72;73.97;95347.59;4913385;29;20206;-86
2024/02/13 03:26:20;;;;;;;1.97;1.40;;;;;;;7.74;73.34;95332.84;4913809;29;20210;-87
2024/02/13 03:32:47;;;;;;;3.83;1.67;;;;;;;7.74;73.04;95330.28;4901686;29;20210;-85
2024/02/13 03:35:39;;;;;;;2.40;1.30;;;;;;;7.80;72.91;95336.53;4906327;29;20222;-86
2024/02/13 03:38:32;;;;;;;;;;;;;;;;;;;;;
2024/02/13 03:41:12;;;;;;;2.23;1.30;;;;;;;7.78;72.93;95329.00;4905154;29;20222;-86
2024/02/13 03:43:47;;;;;;;3.13;1.37;;;;;;;7.84;72.65;95341.16;4907598;29;20210;-86
2024/02/13 03:46:31;;;;;;;2.13;1.40;;;;;;;7.79;72.64;95325.47;4919215;29;20193;-86
2024/02/13 03:49:27;;;;;;;;;;;;;;;;;;;;;
2024/02/13 03:52:36;;;;;;;3.63;1.57;;;;;;;7.75;72.50;95339.56;4921428;29;20222;-86
2024/02/13 03:55:26;;;;;;;2.67;1.30;;;;;;;7.76;72.85;95359.13;4920379;29;20215;-86
2024/02/13 03:58:01;;;;;;;3.30;1.30;;;;;;;7.72;72.77;95345.03;4921445;29;20297;-86
2024/02/13 04:03:18;;;;;;;3.07;1.30;;;;;;;7.75;72.41;95359.28;4926276;29;20293;-86
2024/02/13 04:06:08;;;;;;;2.70;1.40;;;;;;;7.78;72.37;95352.06;4916708;29;20210;-86
2024/02/13 04:12:11;;;;;;;;;;;;;;;;;;;;;
2024/02/13 04:18:07;;;;;;;3.13;1.80;;;;;;;7.66;72.15;95362.84;4875014;29;20726;-87
2024/02/13 04:20:44;;;;;;;3.67;1.33;;;;;;;7.70;72.07;95367.44;4873161;29;20218;-87
2024/02/13 04:26:08;;;;;;;3.47;1.50;;;;;;;7.66;72.53;95381.56;4904734;29;20618;-86
2024/02/13 04:28:54;;;;;;;3.17;1.60;;;;;;;7.63;72.87;95387.81;4904128;29;20218;-86
2024/02/13 04:31:44;;;;;;;2.63;1.40;;;;;;;7.64;72.59;95391.19;4905170;29;20213;-86
2024/02/13 04:37:24;;;;;;;3.07;1.67;;;;;;;7.73;72.13;95377.38;4849074;29;20239;-86
2024/02/13 04:46:07;;;;;;;4.13;1.60;;;;;;;7.55;72.17;95369.88;4912037;29;20359;-87
2024/02/13 04:48:42;;;;;;;2.13;1.20;;;;;;;7.55;72.36;95387.81;4913118;29;20221;-86
2024/02/13 04:51:18;;;;;;;2.83;1.30;;;;;;;7.61;72.32;95384.63;4902798;29;20217;-86
2024/02/13 04:53:46;;;;;;;2.97;1.90;;;;;;;7.61;71.89;95383.81;4904664;29;20211;-86
2024/02/13 04:56:29;;;;;;;3.63;2.03;;;;;;;7.59;71.99;95383.19;4921035;29;20309;-87
2024/02/13 04:59:02;;;;;;;4.23;1.50;;;;;;;7.59;71.90;95390.84;4894329;29;20243;-87
2024/02/13 05:02:13;;;;;;;3.13;1.40;;;;;;;7.60;71.90;95385.56;4894788;29;20233;-86
2024/02/13 05:07:37;;;;;;;3.60;1.80;;;;;;;7.63;71.79;95382.69;4896761;29;20233;-87
2024/02/13 05:10:04;;;;;;;2.37;1.30;;;;;;;7.63;71.56;95377.56;4913898;29;20210;-87
2024/02/13 05:12:43;;;;;;;4.93;1.60;;;;;;;7.56;71.38;95379.16;4916798;29;20216;-86
2024/02/13 05:15:15;;;;;;;4.37;1.50;;;;;;;7.61;71.69;95386.38;4917385;29;20313;-86
2024/02/13 05:20:28;;;;;;;4.03;1.57;;;;;;;7.70;71.83;95405.13;4908462;29;20776;-86
2024/02/13 05:23:15;;;;;;;5.63;1.57;;;;;;;7.69;71.87;95408.63;4917075;29;20285;-86
2024/02/13 05:25:45;;;;;;;2.27;1.30;;;;;;;7.69;71.73;95408.63;4913440;29;20210;-86
2024/02/13 05:28:20;;;;;;;3.97;1.80;;;;;;;7.69;71.86;95396.63;4917483;29;20222;-86
2024/02/13 05:30:53;;;;;;;3.43;1.53;;;;;;;7.66;71.85;95407.19;4922809;29;20206;-86
2024/02/13 05:33:22;;;;;;;4.47;1.77;;;;;;;7.65;71.70;95407.34;4933970;29;20221;-85
2024/02/13 05:35:58;;;;;;;2.03;1.57;;;;;;;7.61;71.75;95394.88;4919855;29;20644;-86
2024/02/13 05:38:52;;;;;;;2.30;1.60;;;;;;;7.62;71.79;95409.28;4918523;29;20293;-85
2024/02/13 05:41:28;;;;;;;7.73;5.20;;;;;;;7.60;71.81;95400.94;4915037;29;20234;-85
2024/02/13 05:43:56;;;;;;;10.33;7.50;;;;;;;7.57;71.54;95403.84;4915667;29;20210;-85
2024/02/13 05:46:39;;;;;;;6.47;2.70;;;;;;;7.54;71.79;95413.59;4916427;29;20735;-86
2024/02/13 05:49:20;;;;;;;2.57;1.60;;;;;;;7.52;71.92;95418.06;4917399;29;20210;-86
2024/02/13 05:52:08;;;;;;;3.87;2.00;;;;;;;7.49;72.18;95423.56;4922937;29;20201;-85
2024/02/13 05:54:42;;;;;;;3.00;1.60;;;;;;;7.50;72.09;95431.06;4919896;29;20253;-85
2024/02/13 06:09:38;;;;;;;2.23;1.70;;;;;;;7.19;72.56;95445.47;4881950;29;20221;-86
2024/02/13 06:15:07;;;;;;;2.57;1.57;;;;;;;7.06;73.52;95476.66;4902639;29;20225;-86
2024/02/13 06:17:48;;;;;;;8.17;6.43;;;;;;;7.13;73.64;95495.53;4915919;29;20269;-86
2024/02/13 06:26:48;;;;;;;4.23;1.67;;;;;;;7.13;73.07;95476.81;4897725;29;20396;-86
2024/02/13 06:29:26;;;;;;;4.27;1.87;;;;;;;7.09;72.79;95476.34;4909642;29;20661;-86
2024/02/13 06:31:55;;;;;;;3.50;1.47;;;;;;;7.12;72.66;95462.44;4918561;29;20305;-85
2024/02/13 06:34:39;;;;;;;3.27;1.60;;;;;;;7.12;72.56;95472.66;4916979;29;20214;-85
2024/02/13 06:37:05;;;;;;;2.70;1.60;;;;;;;7.15;72.53;95475.69;4917890;29;20230;-85
2024/02/13 06:39:32;;;;;;;2.47;1.53;;;;;;;7.20;72.38;95476.03;4917109;29;20682;-86
2024/02/13 06:42:04;;;;;;;23.53;15.37;;;;;;;7.16;74.12;95522.56;4916483;29;20297;-85
2024/02/13 06:44:36;;;;;;;6.40;3.20;;;;;;;7.18;72.53;95479.69;4913466;29;20207;-86
2024/02/13 06:47:25;;;;;;;5.80;2.33;;;;;;;7.27;72.45;95492.38;4922313;29;20666;-87
2024/02/13 06:50:23;;;;;;;2.57;1.60;;;;;;;7.28;72.56;95499.09;4930495;29;20202;-85
2024/02/13 06:53:35;;;;;;;3.87;1.77;;;;;;;7.38;71.77;95483.56;4935937;29;20217;-86
2024/02/13 06:56:37;;;;;;;4.40;1.87;;;;;;;7.39;71.33;95463.88;4864834;29;20783;-85
2024/02/13 06:59:27;;;;;;;4.80;1.93;;;;;;;7.46;71.40;95457.97;4906323;29;20244;-85
2024/02/13 07:02:04;;;;;;;4.63;2.00;;;;;;;7.43;71.22;95454.91;4917297;29;20202;-86
2024/02/13 07:05:08;;;;;;;4.80;2.07;;;;;;;7.42;71.18;95454.13;4916531;29;20217;-85
2024/02/13 07:08:25;;;;;;;5.20;1.90;;;;;;;7.46;71.00;95464.84;4799383;29;20313;-85
2024/02/13 07:14:56;;;;;;;;;;;;;;;;;;;;;
2024/02/13 07:30:43;;;;;;;11.20;5.00;;;;;;;7.74;69.45;95437.91;4803727;29;20270;-85
2024/02/13 07:40:04;;;;;;;4.63;1.80;;;;;;;8.04;68.44;95408.22;4917312;29;20276;-85
2024/02/13 07:43:28;;;;;;;5.27;1.77;;;;;;;8.36;67.50;95380.88;4767986;30;20707;-86
2024/02/13 08:18:26;;;;;;;3.90;1.43;;;;;;;10.69;58.93;94987.56;4734484;30;20275;-86
2024/02/13 08:21:23;;;;;;;2.50;1.63;;;;;;;10.51;58.52;94945.31;4797378;29;20286;-86
2024/02/13 08:24:08;;;;;;;10.57;8.27;;;;;;;10.72;58.78;94978.69;4818744;29;20221;-86
2024/02/13 08:27:05;;;;;;;12.17;8.73;;;;;;;11.15;57.65;94945.72;4781177;29;20259;-86
2024/02/13 08:36:09;;;;;;;3.67;1.90;;;;;;;12.26;54.63;94775.59;4837553;29;20797;-86
2024/02/13 08:39:04;;;;;;;2.27;1.50;;;;;;;12.52;53.63;94736.69;4833852;29;20322;-85
2024/02/13 08:41:54;;;;;;;3.60;1.60;;;;;;;12.75;53.72;94690.44;4902608;29;20687;-86
2024/02/13 08:44:30;;;;;;;3.67;1.90;;;;;;;12.91;52.77;94618.56;4894335;29;20211;-85
2024/02/13 08:55:51;;;;;;;2.90;1.63;;;;;;;13.20;51.29;94573.94;4892781;29;20211;-87
2024/02/13 08:58:52;;;;;;;;;;;;;;;;;;;;;
2024/02/13 09:04:37;;;;;;;5.90;1.70;;;;;;;13.54;50.63;94558.81;4907875;29;20230;-84
2024/02/13 09:13:08;;;;;;;3.33;1.67;;;;;;;13.88;49.92;94521.09;4899660;29;20846;-84
2024/02/13 09:15:44;;;;;;;4.40;1.70;;;;;;;13.77;49.64;94492.41;4896086;29;20226;-85
2024/02/13 09:18:26;;;;;;;3.00;1.40;;;;;;;13.87;49.37;94488.47;4897099;29;20245;-86
2024/02/13 09:21:09;;;;;;;6.73;4.13;;;;;;;13.98;49.32;94504.03;4897316;29;20218;-86
2024/02/13 09:26:34;;;;;;;3.67;1.40;;;;;;;14.18;48.84;94496.72;4911791;29;20210;-86
2024/02/13 09:29:18;;;;;;;3.37;1.77;;;;;;;14.21;48.85;94538.72;4908261;29;20277;-86
2024/02/13 09:32:18;;;;;;;5.03;1.40;;;;;;;14.15;48.36;94568.88;4914900;29;20214;-85
2024/02/13 09:38:08;;;;;;;3.67;1.50;;;;;;;14.17;49.58;94628.97;4870972;29;20231;-86
2024/02/13 09:40:44;;;;;;;2.28;1.10;;;;;;;14.16;48.45;94566.06;4875468;29;20231;-85
2024/02/13 09:43:22;;;;;;;4.57;1.60;;;;;;;14.31;48.66;94593.31;4861045;29;20290;-86
2024/02/13 09:48:45;;;;;;;3.17;1.20;;;;;;;14.44;48.63;94600.88;4898731;29;20233;-85
2024/02/13 09:51:31;;;;;;;2.50;1.10;;;;;;;14.13;47.96;94539.81;4914882;29;20594;-85
2024/02/13 09:54:01;;;;;;;4.53;1.30;;;;;;;13.83;48.66;94563.97;4916053;29;20211;-85
2024/02/13 09:56:53;;;;;;;4.72;3.10;;;;;;;13.89;49.24;94605.47;4918445;29;20231;-85
2024/02/13 09:59:23;;;;;;;6.27;1.43;;;;;;;13.76;49.04;94590.94;4917408;29;20218;-85
2024/02/13 10:02:11;;;;;;;3.17;1.70;;;;;;;13.33;49.79;94617.72;4918041;29;20288;-85
2024/02/13 10:05:09;;;;;;;;;;;;;;;;;;;;;
2024/02/13 10:07:47;;;;;;;2.97;1.60;;;;;;;13.17;50.30;94676.97;4916694;29;20229;-85
2024/02/13 10:10:18;;;;;;;2.73;1.20;;;;;;;13.11;50.71;94697.47;4917599;29;20718;-85
2024/02/13 10:13:23;;;;;;;5.93;1.63;;;;;;;12.73;50.64;94683.91;4915802;29;20213;-86
2024/02/13 10:16:30;;;;;;;3.27;1.53;;;;;;;12.40;51.65;94753.84;4903177;29;20217;-86
2024/02/13 10:19:27;;;;;;;2.80;1.50;;;;;;;12.45;51.99;94778.06;4915501;29;20210;-85
2024/02/13 10:22:05;;;;;;;3.50;1.30;;;;;;;12.84;51.24;94768.47;4914394;29;20282;-85
2024/02/13 10:24:47;;;;;;;5.20;1.77;;;;;;;12.86;51.23;94725.13;4915826;29;20213;-84
2024/02/13 10:27:39;;;;;;;4.00;1.40;;;;;;;13.15;50.66;94726.28;4915776;29;20218;-85
2024/02/13 10:30:23;;;;;;;2.40;1.20;;;;;;;13.04;50.18;94680.47;4887863;29;20244;-86
2024/02/13 10:33:00;;;;;;;4.03;1.37;;;;;;;13.24;50.14;94680.28;4922415;29;20209;-84
2024/02/13 10:35:32;;;;;;;1.80;1.33;;;;;;;13.34;49.73;94668.44;4916776;29;20210;-86
2024/02/13 10:38:22;;;;;;;4.87;1.40;;;;;;;13.28;49.20;94638.25;4916216;29;20236;-85
2024/02/13 10:40:57;;;;;;;2.00;1.10;;;;;;;13.13;49.23;94620.50;4917086;29;20206;-85
2024/02/13 10:43:42;;;;;;;4.97;1.27;;;;;;;13.11;49.04;94616.56;4917792;29;20205;-85
2024/02/13 10:46:30;;;;;;;;;;;;;;;;;;;;;
2024/02/13 10:49:19;;;;;;;3.73;1.53;;;;;;;12.76;49.52;94640.38;4914612;29;20214;-86
2024/02/13 10:54:58;;;;;;;2.63;1.10;;;;;;;13.01;49.32;94634.38;4914056;29;20727;-85
2024/02/13 10:57:34;;;;;;;3.03;1.60;;;;;;;12.93;49.72;94650.94;4914985;29;20232;-84
2024/02/13 11:00:14;;;;;;;3.90;1.30;;;;;;;13.25;50.03;94680.06;4917392;29;20218;-85
2024/02/13 11:02:58;;;;;;;1.67;1.17;;;;;;;13.52;49.59;94672.00;4916066;29;20815;-84
2024/02/13 11:05:45;;;;;;;1.53;1.03;;;;;;;13.33;48.18;94567.81;4919771;29;20213;-84
2024/02/13 11:08:33;;;;;;;4.03;1.23;;;;;;;12.90;48.37;94560.94;4918180;29;20222;-86
2024/02/13 11:11:03;;;;;;;3.67;1.30;;;;;;;12.64;48.59;94574.13;4920113;29;20240;-83
2024/02/13 11:13:41;;;;;;;3.77;1.40;;;;;;;12.56;48.50;94559.69;4919303;29;20295;-84
2024/02/13 11:16:18;;;;;;;5.00;1.30;;;;;;;12.72;48.93;94605.63;4918446;29;20240;-86
2024/02/13 11:18:48;;;;;;;2.30;1.40;;;;;;;12.73;48.66;94585.75;4913957;29;20266;-84
2024/02/13 11:21:33;;;;;;;3.87;1.30;;;;;;;12.58;49.10;94603.38;4907850;29;20285;-83
2024/02/13 11:24:21;;;;;;;2.23;1.30;;;;;;;12.54;49.37;94623.66;4919071;29;20378;-83
2024/02/13 11:26:51;;;;;;;1.70;1.20;;;;;;;12.44;50.05;94654.34;4915920;29;20574;-84
2024/02/13 11:29:34;;;;;;;4.07;1.53;;;;;;;12.23;50.39;94670.19;4927950;29;20214;-84
2024/02/13 11:32:25;;;;;;;2.93;1.40;;;;;;;12.36;50.77;94688.94;4940379;29;20220;-87
2024/02/13 11:35:07;;;;;;;1.53;1.30;;;;;;;12.74;51.20;94732.75;4931849;29;20236;-85
2024/02/13 11:37:41;;;;;;;3.90;1.37;;;;;;;12.88;50.43;94707.63;4912868;29;20263;-85
2024/02/13 11:40:19;;;;;;;3.27;1.20;;;;;;;12.58;50.14;94666.16;4903469;29;20211;-82
2024/02/13 11:42:53;;;;;;;2.60;1.30;;;;;;;12.19;50.10;94662.06;4901051;29;20627;-84
2024/02/13 11:45:26;;;;;;;2.70;1.10;;;;;;;11.88;50.36;94660.28;4899940;29;20275;-84
2024/02/13 11:47:53;;;;;;;5.80;3.50;;;;;;;11.91;50.46;94670.19;4900537;29;20286;-84
2024/02/13 11:50:23;;;;;;;4.63;2.10;;;;;;;12.20;50.46;94661.06;4902052;29;20217;-85
2024/02/13 11:53:02;;;;;;;2.63;1.17;;;;;;;12.23;49.94;94649.53;4916720;29;20218;-83
2024/02/13 11:55:35;;;;;;;3.07;1.17;;;;;;;12.49;49.46;94627.91;4906358;29;20237;-83
2024/02/13 11:58:32;;;;;;;2.37;1.10;;;;;;;12.63;48.65;94586.25;4921399;29;20329;-84
2024/02/13 12:01:00;;;;;;;1.10;0.93;;;;;;;12.78;48.81;94586.69;4922312;29;20297;-83
2024/02/13 12:03:27;;;;;;;2.23;1.40;;;;;;;12.80;48.51;94579.53;4921865;29;20618;-83
2024/02/13 12:05:54;;;;;;;2.47;1.40;;;;;;;12.70;48.51;94570.72;4921143;29;20697;-82
2024/02/13 12:08:21;;;;;;;4.13;1.40;;;;;;;12.64;49.01;94608.50;4911382;29;20226;-82
2024/02/13 12:10:50;;;;;;;2.90;1.20;;;;;;;12.50;49.23;94614.78;4918129;29;20217;-82
2024/02/13 12:13:18;;;;;;;2.40;1.10;;;;;;;11.98;49.91;94624.50;4920649;29;20210;-82
2024/02/13 12:15:44;;;;;;;2.17;1.17;;;;;;;11.89;50.18;94654.13;4920050;29;20218;-82
2024/02/13 12:18:12;;;;;;;2.20;1.43;;;;;;;11.91;50.79;94701.13;4919520;29;20248;-83
2024/02/13 12:20:39;;;;;;;3.47;1.27;;;;;;;11.95;50.56;94693.75;4906672;29;20202;-82
2024/02/13 12:23:12;;;;;;;2.17;1.17;;;;;;;12.25;50.28;94665.59;4916730;29;20237;-83
2024/02/13 12:25:41;;;;;;;2.10;1.37;;;;;;;12.46;49.36;94618.78;4921223;29;20638;-81
2024/02/13 12:28:12;;;;;;;4.07;1.23;;;;;;;12.50;48.68;94580.44;4937878;29;20312;-81
2024/02/13 12:30:39;;;;;;;3.77;1.30;;;;;;;12.26;49.12;94579.44;4938696;29;20205;-82
2024/02/13 12:33:06;;;;;;;1.77;1.13;;;;;;;11.94;48.63;94552.88;4938652;29;20696;-83
2024/02/13 12:35:33;;;;;;;1.87;1.10;;;;;;;11.94;52.16;94743.75;4940912;29;20274;-83
2024/02/13 12:38:13;;;;;;;4.97;1.40;;;;;;;11.96;50.21;94644.53;4940548;29;20264;-81
2024/02/13 12:40:40;;;;;;;3.00;1.00;;;;;;;11.94;49.15;94583.84;4921612;29;20273;-82
2024/02/13 12:43:06;;;;;;;2.37;1.00;;;;;;;11.95;48.99;94564.78;4918176;29;20213;-82
2024/02/13 12:45:41;;;;;;;2.20;1.10;;;;;;;11.82;48.85;94555.34;4919168;29;20209;-82
2024/02/13 12:48:08;;;;;;;2.70;1.10;;;;;;;11.89;50.97;94666.22;4921594;29;20228;-83
2024/02/13 12:50:35;;;;;;;3.03;1.20;;;;;;;12.00;49.96;94637.19;4920623;29;20257;-82
2024/02/13 12:53:01;;;;;;;3.90;1.20;;;;;;;12.13;49.22;94600.16;4917636;29;20630;-82
2024/02/13 12:55:27;;;;;;;1.67;1.03;;;;;;;12.19;51.51;94736.91;4914761;29;20203;-83
2024/02/13 12:57:54;;;;;;;2.23;1.10;;;;;;;12.22;50.81;94666.03;4918356;29;20301;-83
2024/02/13 13:00:22;;;;;;;12.80;10.07;;;;;;;12.18;50.96;94688.06;4918742;29;20278;-82
2024/02/13 13:02:50;;;;;;;3.40;1.63;;;;;;;12.03;49.34;94591.13;4918032;29;20852;-82
2024/02/13 13:05:16;;;;;;;1.47;1.00;;;;;;;12.07;50.52;94674.06;4919043;29;20246;-82
2024/02/13 13:07:48;;;;;;;2.50;1.30;;;;;;;12.03;50.25;94672.88;4918579;29;20223;-82
2024/02/13 13:10:18;;;;;;;2.00;1.20;;;;;;;12.19;51.31;94712.88;4923062;29;20300;-82
2024/02/13 13:12:44;;;;;;;2.73;1.37;;;;;;;12.39;48.97;94571.59;4915346;29;20202;-82
2024/02/13 13:15:11;;;;;;;1.87;1.30;;;;;;;12.43;49.03;94568.38;4920452;29;20826;-85
2024/02/13 13:17:39;;;;;;;3.33;1.03;;;;;;;12.59;48.02;94528.28;4920255;29;20225;-83
2024/02/13 13:20:12;;;;;;;3.50;1.23;;;;;;;12.60;47.26;94460.16;4919811;29;20216;-82
2024/02/13 13:22:41;;;;;;;2.07;1.00;;;;;;;12.83;47.33;94482.75;4921970;29;20277;-82
2024/02/13 13:25:12;;;;;;;2.00;1.10;;;;;;;13.04;46.45;94438.34;4919242;29;20752;-83
2024/02/13 13:27:38;;;;;;;1.53;1.00;;;;;;;13.24;45.85;94390.81;4916055;29;20694;-82
2024/02/13 13:30:07;;;;;;;2.27;1.30;;;;;;;13.32;45.95;94396.41;4919209;29;20254;-82
2024/02/13 13:32:33;;;;;;;3.40;1.20;;;;;;;13.47;46.04;94408.91;4922339;29;20289;-82
2024/02/13 13:35:00;;;;;;;1.93;1.17;;;;;;;13.59;46.30;94427.84;4923507;29;20233;-83
2024/02/13 13:37:28;;;;;;;2.43;1.07;;;;;;;13.82;45.79;94404.56;4923116;29;20256;-83
2024/02/13 13:39:55;;;;;;;2.53;1.10;;;;;;;13.99;45.48;94396.91;4924129;29;20206;-83
2024/02/13 13:42:21;;;;;;;13.85;12.35;;;;;;;14.13;45.56;94387.88;4927703;29;20427;-82
2024/02/13 13:44:49;;;;;;;5.53;4.30;;;;;;;14.15;44.98;94352.22;4921615;29;20234;-82
2024/02/13 13:47:18;;;;;;;2.30;1.23;;;;;;;14.26;44.01;94308.41;4925607;29;20453;-83
2024/02/13 13:49:45;;;;;;;3.63;1.23;;;;;;;14.26;43.85;94291.06;4924994;29;20214;-85
2024/02/13 13:52:11;;;;;;;2.15;1.15;;;;;;;14.29;43.21;94241.41;4926005;29;20234;-85
2024/02/13 13:54:39;;;;;;;2.75;1.20;;;;;;;14.30;42.77;94224.84;4924295;29;20210;-84
2024/02/13 13:57:06;;;;;;;2.33;1.02;;;;;;;14.21;42.64;94213.31;4925186;29;20299;-84
2024/02/13 13:59:32;;;;;;;3.05;1.10;;;;;;;13.95;42.16;94183.59;4924562;29;20233;-83
2024/02/13 14:01:59;;;;;;;4.13;1.23;;;;;;;13.95;42.64;94217.25;4917884;29;20269;-83
2024/02/13 14:04:26;;;;;;;3.45;1.20;;;;;;;13.93;43.05;94246.94;4922472;29;20689;-84
2024/02/13 14:06:53;;;;;;;1.38;1.02;;;;;;;13.74;43.17;94247.13;4921983;29;20233;-84
2024/02/13 14:09:21;;;;;;;1.80;1.13;;;;;;;13.79;43.28;94262.75;4922666;29;20201;-84
2024/02/13 14:11:51;;;;;;;1.90;0.93;;;;;;;13.78;43.16;94266.34;4923017;29;20221;-84
2024/02/13 14:14:17;;;;;;;1.60;1.20;;;;;;;13.63;43.18;94260.88;4922452;29;20182;-84
2024/02/13 14:16:44;;;;;;;2.85;1.00;;;;;;;13.55;43.45;94275.94;4922787;29;20209;-85
2024/02/13 14:19:10;;;;;;;2.07;1.10;;;;;;;13.46;43.63;94286.63;4924325;29;20230;-84
2024/02/13 14:21:37;;;;;;;1.47;0.83;;;;;;;13.51;44.07;94316.97;4933573;29;20852;-84
2024/02/13 14:24:04;;;;;;;1.23;1.03;;;;;;;13.49;44.48;94348.22;4921751;29;20202;-85
2024/02/13 14:26:34;;;;;;;2.80;1.15;;;;;;;13.64;44.22;94342.63;4921393;29;20202;-84
2024/02/13 14:29:03;;;;;;;2.73;1.10;;;;;;;13.67;44.04;94331.78;4921279;29;20250;-84
2024/02/13 14:31:30;;;;;;;2.63;1.30;;;;;;;13.76;44.00;94329.66;4921871;29;20241;-83
2024/02/13 14:33:59;;;;;;;1.70;1.08;;;;;;;13.57;43.17;94272.09;4918579;29;20254;-84
2024/02/13 14:36:29;;;;;;;3.00;1.23;;;;;;;13.19;43.81;94306.16;4920440;29;20198;-84
2024/02/13 14:38:55;;;;;;;1.80;1.40;;;;;;;12.75;44.67;94348.72;4919078;29;20298;-83
2024/02/13 14:41:21;;;;;;;2.03;1.17;;;;;;;12.61;45.57;94397.19;4918833;29;20214;-84
2024/02/13 14:43:51;;;;;;;1.90;1.20;;;;;;;12.67;45.94;94422.16;4919385;29;20269;-84
2024/02/13 14:46:19;;;;;;;2.27;1.03;;;;;;;12.80;45.56;94427.13;4920319;29;20217;-84
2024/02/13 14:48:47;;;;;;;2.23;1.10;;;;;;;12.66;45.91;94425.72;4916840;29;20222;-85
2024/02/13 14:51:18;;;;;;;1.33;1.00;;;;;;;12.54;46.12;94444.72;4918265;29;20214;-84
2024/02/13 14:53:45;;;;;;;2.43;1.20;;;;;;;12.39;46.31;94468.34;4918521;29;20210;-84
2024/02/13 14:56:11;;;;;;;2.60;1.30;;;;;;;12.37;46.92;94483.25;4919509;29;20309;-85
2024/02/13 14:58:38;;;;;;;2.60;1.27;;;;;;;12.31;46.77;94489.28;4901964;29;20231;-83
2024/02/13 15:01:07;;;;;;;2.93;1.30;;;;;;;12.20;47.07;94511.41;4906284;29;20674;-83
2024/02/13 15:03:35;;;;;;;3.97;1.40;;;;;;;12.13;47.21;94513.25;4918272;29;20205;-83
2024/02/13 15:06:01;;;;;;;2.00;1.10;;;;;;;12.13;47.46;94522.78;4921137;29;20222;-84
2024/02/13 15:08:29;;;;;;;2.17;1.00;;;;;;;12.06;47.53;94533.16;4918952;29;20226;-84
2024/02/13 15:10:56;;;;;;;3.53;1.30;;;;;;;12.03;47.67;94536.94;4918727;29;20203;-84
2024/02/13 15:13:22;;;;;;;2.10;1.10;;;;;;;12.04;47.53;94548.06;4915233;29;20517;-84
2024/02/13 15:15:50;;;;;;;2.33;1.23;;;;;;;12.04;47.94;94548.84;4929458;29;20206;-86
2024/02/13 15:18:17;;;;;;;3.33;1.57;;;;;;;12.04;47.92;94548.84;4933587;29;20269;-84
2024/02/13 15:20:46;;;;;;;3.63;1.27;;;;;;;12.02;48.13;94568.13;4912584;29;20203;-84
2024/02/13 15:23:14;;;;;;;3.33;1.40;;;;;;;11.99;48.44;94586.59;4906417;29;20240;-84
2024/02/13 15:25:40;;;;;;;4.20;1.40;;;;;;;11.98;48.65;94593.53;4918616;29;20210;-83
2024/02/13 15:28:07;;;;;;;3.17;1.63;;;;;;;11.96;49.05;94628.28;4918895;29;20218;-84
2024/02/13 15:30:33;;;;;;;10.80;7.87;;;;;;;12.09;48.90;94639.31;4919034;29;20202;-83
2024/02/13 15:33:00;;;;;;;8.17;5.20;;;;;;;12.25;48.95;94647.53;4917583;29;20273;-84
2024/02/13 15:35:39;;;;;;;3.57;2.23;;;;;;;12.32;48.85;94628.41;4901010;29;20258;-83
2024/02/13 15:49:05;;;;;;;2.77;1.10;;;;;;;12.38;48.80;94632.75;4903855;29;20225;-83
2024/02/13 15:51:33;;;;;;;2.17;1.33;;;;;;;12.42;49.38;94651.97;4906374;29;20274;-84
2024/02/13 15:54:03;;;;;;;2.90;1.70;;;;;;;12.45;49.02;94650.78;4905614;29;20214;-85
2024/02/13 15:56:34;;;;;;;2.83;1.70;;;;;;;12.52;48.78;94653.28;4920144;29;20622;-85
2024/02/13 15:59:00;;;;;;;3.00;1.50;;;;;;;12.52;48.78;94645.53;4922294;29;20253;-84
2024/02/13 16:12:15;;;;;;;23.53;21.00;;;;;;;12.07;49.55;94674.84;4901029;29;20245;-85
2024/02/13 16:15:14;;;;;;;7.60;6.07;;;;;;;11.93;50.04;94704.28;4897716;29;20262;-84
2024/02/13 16:21:52;;;;;;;3.03;1.20;;;;;;;11.83;50.13;94722.00;4812902;29;20216;-84
2024/02/13 16:28:10;;;;;;;;;;;;;;;;;;;;;
2024/02/13 16:31:01;;;;;;;4.20;1.40;;;;;;;11.59;51.01;94774.22;4883622;29;20205;-84
2024/02/13 16:36:40;;;;;;;6.43;1.60;;;;;;;11.52;52.15;94830.97;4894491;29;20223;-83
2024/02/13 16:58:29;;;;;;;5.40;2.27;;;;;;;11.14;52.99;94915.81;4826575;29;20247;-84
2024/02/13 17:01:17;;;;;;;6.33;2.13;;;;;;;11.11;52.94;94918.75;4837769;29;20219;-85
2024/02/13 17:04:18;;;;;;;3.83;1.80;;;;;;;11.00;53.38;94945.88;4817361;29;20216;-84